createdAt,value
2019-05-03T00:02:41.712Z,100531.69
2019-05-03T00:05:39.245Z,100536.81
2019-05-03T00:08:08.743Z,100528.89
2019-05-03T00:10:38.763Z,100526.95
2019-05-03T00:13:08.471Z,100531.95
2019-05-03T00:16:12.267Z,100532.20
2019-05-03T00:18:42.220Z,100527.80
2019-05-03T00:21:11.736Z,100526.33
2019-05-03T00:23:41.793Z,100540.50
2019-05-03T00:26:11.997Z,100548.81
2019-05-03T00:28:42.665Z,100546.38
2019-05-03T00:31:12.510Z,100551.12
2019-05-03T00:33:43.379Z,100554.52
2019-05-03T00:36:22.431Z,100549.15
2019-05-03T00:38:53.677Z,100554.14
2019-05-03T00:41:22.686Z,100550.36
2019-05-03T00:43:51.925Z,100543.39
2019-05-03T00:46:22.033Z,100536.33
2019-05-03T00:48:52.442Z,100536.67
2019-05-03T00:51:22.562Z,100533.64
2019-05-03T00:53:53.098Z,100537.28
2019-05-03T00:56:22.245Z,100538.23
2019-05-03T00:58:57.497Z,100537.52
2019-05-03T01:01:26.504Z,100531.65
2019-05-03T01:03:55.576Z,100535.19
2019-05-03T01:06:24.693Z,100545.09
2019-05-03T01:08:54.606Z,100544.59
2019-05-03T01:11:24.355Z,100543.38
2019-05-03T01:13:54.377Z,100541.91
2019-05-03T01:16:24.855Z,100539.59
2019-05-03T01:18:54.427Z,100542.28
2019-05-03T01:21:24.688Z,100537.54
2019-05-03T01:23:54.397Z,100544.00
2019-05-03T01:26:24.460Z,100547.66
2019-05-03T01:28:54.474Z,100530.44
2019-05-03T01:31:24.504Z,100536.78
2019-05-03T01:33:54.752Z,100544.34
2019-05-03T01:36:24.773Z,100542.99
2019-05-03T01:38:54.552Z,100542.66
2019-05-03T01:41:24.553Z,100542.78
2019-05-03T01:43:54.568Z,100549.70
2019-05-03T01:46:24.634Z,100536.66
2019-05-03T01:49:01.655Z,100541.31
2019-05-03T01:51:36.390Z,100540.82
2019-05-03T01:54:05.908Z,100538.02
2019-05-03T01:56:34.926Z,100543.90
2019-05-03T01:59:04.072Z,100534.64
2019-05-03T02:01:49.392Z,100540.77
2019-05-03T02:04:43.239Z,100540.77
2019-05-03T02:07:12.285Z,100541.61
2019-05-03T02:09:41.697Z,100541.98
2019-05-03T02:12:12.714Z,100545.64
2019-05-03T02:14:42.311Z,100541.48
2019-05-03T02:17:12.452Z,100545.17
2019-05-03T02:19:42.276Z,100542.24
2019-05-03T02:22:12.112Z,100546.27
2019-05-03T02:24:42.252Z,100545.77
2019-05-03T02:27:12.746Z,100547.48
2019-05-03T02:29:41.998Z,100551.27
2019-05-03T02:32:13.225Z,100555.16
2019-05-03T02:34:43.859Z,100557.00
2019-05-03T02:37:14.015Z,100558.59
2019-05-03T02:39:43.274Z,100555.54
2019-05-03T02:42:12.447Z,100556.75
2019-05-03T02:44:41.556Z,100559.19
2019-05-03T02:47:26.511Z,100557.50
2019-05-03T02:49:59.740Z,100563.22
2019-05-03T02:52:36.660Z,100556.88
2019-05-03T02:55:11.574Z,100561.50
2019-05-03T02:57:40.686Z,100565.90
2019-05-03T03:00:11.977Z,100556.63
2019-05-03T03:02:41.417Z,100568.45
2019-05-03T03:05:12.765Z,100562.25
2019-05-03T03:07:46.064Z,100560.53
2019-05-03T03:10:17.675Z,100562.63
2019-05-03T03:12:50.734Z,100557.84
2019-05-03T03:15:19.898Z,100570.89
2019-05-03T03:17:52.086Z,100562.84
2019-05-03T03:20:21.294Z,100562.84
2019-05-03T03:22:55.398Z,100570.89
2019-05-03T03:25:28.551Z,100569.42
2019-05-03T03:28:01.456Z,100568.95
2019-05-03T03:31:20.441Z,100561.75
2019-05-03T03:33:49.366Z,100570.17
2019-05-03T03:36:50.275Z,100573.95
2019-05-03T03:38:50.215Z,100574.80
2019-05-03T03:41:19.884Z,100577.48
2019-05-03T03:43:51.239Z,100575.67
2019-05-03T03:46:25.117Z,100584.81
2019-05-03T03:48:56.972Z,100580.53
2019-05-03T03:51:27.574Z,100586.75
2019-05-03T03:53:59.682Z,100585.16
2019-05-03T03:56:32.488Z,100594.33
2019-05-03T03:59:01.580Z,100597.11
2019-05-03T04:01:30.735Z,100593.45
2019-05-03T04:04:00.161Z,100593.45
2019-05-03T04:06:41.960Z,100605.30
2019-05-03T04:09:11.134Z,100605.17
2019-05-03T04:11:41.284Z,100594.33
2019-05-03T04:14:16.167Z,100600.55
2019-05-03T04:17:20.137Z,100603.35
2019-05-03T04:19:51.782Z,100606.49
2019-05-03T04:22:21.201Z,100612.83
2019-05-03T04:24:50.377Z,100610.13
2019-05-03T04:27:26.095Z,100613.61
2019-05-03T04:29:51.889Z,100617.81
2019-05-03T04:32:24.771Z,100622.49
2019-05-03T04:34:52.820Z,100627.27
2019-05-03T04:37:21.966Z,100634.76
2019-05-03T04:39:51.058Z,100634.71
2019-05-03T04:42:20.138Z,100637.50
2019-05-03T04:44:49.186Z,100639.38
2019-05-03T04:47:18.310Z,100643.01
2019-05-03T04:49:47.378Z,100645.36
2019-05-03T04:52:16.754Z,100641.13
2019-05-03T04:54:56.942Z,100644.64
2019-05-03T04:57:36.741Z,100647.91
2019-05-03T04:59:56.951Z,100649.45
2019-05-03T05:02:26.611Z,100645.16
2019-05-03T05:04:56.381Z,100655.73
2019-05-03T05:07:26.532Z,100655.77
2019-05-03T05:09:56.490Z,100653.39
2019-05-03T05:12:26.374Z,100657.39
2019-05-03T05:14:56.634Z,100663.41
2019-05-03T05:17:36.310Z,100665.29
2019-05-03T05:20:14.479Z,100659.33
2019-05-03T05:22:45.422Z,100665.70
2019-05-03T05:25:18.175Z,100668.59
2019-05-03T05:28:04.616Z,100676.29
2019-05-03T05:30:35.314Z,100669.89
2019-05-03T05:33:06.241Z,100688.42
2019-05-03T05:35:35.348Z,100677.83
2019-05-03T05:38:04.764Z,100683.19
2019-05-03T05:40:34.948Z,100673.61
2019-05-03T05:43:04.942Z,100681.17
2019-05-03T05:45:34.807Z,100687.35
2019-05-03T05:48:07.694Z,100684.00
2019-05-03T05:50:39.603Z,100690.58
2019-05-03T05:53:08.760Z,100680.40
2019-05-03T05:55:59.835Z,100690.22
2019-05-03T05:58:34.794Z,100694.42
2019-05-03T06:01:11.730Z,100691.05
2019-05-03T06:03:40.858Z,100698.60
2019-05-03T06:06:15.199Z,100692.33
2019-05-03T06:08:59.761Z,100694.67
2019-05-03T06:11:38.361Z,100691.03
2019-05-03T06:14:17.383Z,100698.44
2019-05-03T06:17:00.405Z,100695.36
2019-05-03T06:19:37.171Z,100698.10
2019-05-03T06:22:29.049Z,100697.27
2019-05-03T06:25:06.105Z,100703.55
2019-05-03T06:27:38.285Z,100698.47
2019-05-03T06:30:19.787Z,100691.00
2019-05-03T06:32:48.835Z,100701.34
2019-05-03T06:35:17.845Z,100696.23
2019-05-03T06:37:46.859Z,100697.33
2019-05-03T06:40:16.344Z,100697.36
2019-05-03T06:42:52.395Z,100698.34
2019-05-03T06:45:16.130Z,100699.44
2019-05-03T06:47:49.766Z,100702.72
2019-05-03T06:50:19.475Z,100704.81
2019-05-03T06:52:47.001Z,100697.62
2019-05-03T06:55:16.147Z,100708.64
2019-05-03T06:57:49.489Z,100701.95
2019-05-03T07:00:45.145Z,100714.55
2019-05-03T07:03:28.853Z,100717.41
2019-05-03T07:06:33.355Z,100709.92
2019-05-03T07:09:00.105Z,100716.28
2019-05-03T07:11:29.158Z,100700.29
2019-05-03T07:13:58.513Z,100700.78
2019-05-03T07:16:27.555Z,100715.56
2019-05-03T07:18:58.620Z,100703.45
2019-05-03T07:21:27.744Z,100708.44
2019-05-03T07:23:56.944Z,100706.53
2019-05-03T07:26:26.914Z,100706.75
2019-05-03T07:28:57.206Z,100716.81
2019-05-03T07:31:27.006Z,100725.61
2019-05-03T07:33:56.993Z,100712.58
2019-05-03T07:36:28.366Z,100718.02
2019-05-03T07:38:57.571Z,100715.05
2019-05-03T07:41:27.379Z,100707.39
2019-05-03T07:43:56.971Z,100721.59
2019-05-03T07:46:26.002Z,100730.16
2019-05-03T07:48:55.009Z,100740.67
2019-05-03T07:51:24.841Z,100731.61
2019-05-03T07:53:55.533Z,100723.28
2019-05-03T07:56:29.063Z,100721.95
2019-05-03T07:59:03.392Z,100714.97
2019-05-03T08:01:35.603Z,100731.12
2019-05-03T08:04:05.604Z,100729.20
2019-05-03T08:06:34.744Z,100729.58
2019-05-03T08:09:06.655Z,100727.33
2019-05-03T08:11:35.707Z,100725.30
2019-05-03T08:14:06.185Z,100720.99
2019-05-03T08:16:35.451Z,100719.94
2019-05-03T08:19:05.076Z,100718.66
2019-05-03T08:21:37.935Z,100709.31
2019-05-03T08:24:05.536Z,100716.75
2019-05-03T08:26:35.141Z,100722.53
2019-05-03T08:29:15.595Z,100719.84
2019-05-03T08:32:09.300Z,100702.04
2019-05-03T08:34:55.599Z,100713.83
2019-05-03T08:37:28.095Z,100706.67
2019-05-03T08:39:57.476Z,100715.80
2019-05-03T08:42:27.457Z,100715.09
2019-05-03T08:44:57.434Z,100724.19
2019-05-03T08:47:27.496Z,100716.84
2019-05-03T08:49:57.471Z,100710.55
2019-05-03T08:52:27.543Z,100712.88
2019-05-03T08:54:57.874Z,100711.66
2019-05-03T08:57:27.540Z,100717.33
2019-05-03T08:59:57.552Z,100709.89
2019-05-03T09:02:27.633Z,100684.05
2019-05-03T09:04:57.617Z,100695.11
2019-05-03T09:07:27.624Z,100709.98
2019-05-03T09:10:16.865Z,100709.98
2019-05-03T09:13:06.434Z,100702.29
2019-05-03T09:15:35.816Z,100694.30
2019-05-03T09:18:05.399Z,100686.14
2019-05-03T09:20:35.608Z,100693.39
2019-05-03T09:23:05.451Z,100694.05
2019-05-03T09:25:35.584Z,100682.12
2019-05-03T09:28:04.969Z,100688.83
2019-05-03T09:30:35.725Z,100683.73
2019-05-03T09:33:08.662Z,100692.94
2019-05-03T09:35:36.258Z,100697.46
2019-05-03T09:38:05.868Z,100695.91
2019-05-03T09:40:35.386Z,100701.98
2019-05-03T09:43:04.751Z,100707.67
2019-05-03T09:45:35.255Z,100719.23
2019-05-03T09:48:05.697Z,100724.78
2019-05-03T09:50:35.837Z,100704.16
2019-05-03T09:53:05.606Z,100707.11
2019-05-03T09:55:38.059Z,100698.17
2019-05-03T09:58:07.109Z,100700.42
2019-05-03T10:00:36.115Z,100698.66
2019-05-03T10:03:05.692Z,100703.00
2019-05-03T10:05:35.246Z,100695.05
2019-05-03T10:08:05.252Z,100722.46
2019-05-03T10:10:51.956Z,100710.25
2019-05-03T10:13:23.378Z,100710.31
2019-05-03T10:15:51.750Z,100717.63
2019-05-03T10:18:20.751Z,100699.86
2019-05-03T10:20:49.825Z,100698.52
2019-05-03T10:23:49.976Z,100701.57
2019-05-03T10:26:19.109Z,100710.73
2019-05-03T10:28:48.165Z,100698.56
2019-05-03T10:31:17.348Z,100698.78
2019-05-03T10:33:54.290Z,100697.95
2019-05-03T10:36:24.955Z,100700.80
2019-05-03T10:41:29.020Z,100690.73
2019-05-03T10:43:58.542Z,100693.92
2019-05-03T10:46:28.536Z,100694.48
2019-05-03T10:48:58.531Z,100686.67
2019-05-03T10:51:30.929Z,100686.56
2019-05-03T10:54:00.557Z,100690.98
2019-05-03T10:56:53.177Z,100687.26
2019-05-03T10:59:24.828Z,100678.99
2019-05-03T11:02:11.551Z,100685.26
2019-05-03T11:04:43.493Z,100683.33
2019-05-03T11:07:11.430Z,100679.43
2019-05-03T11:09:49.792Z,100700.48
2019-05-03T11:12:11.226Z,100693.67
2019-05-03T11:14:40.236Z,100678.50
2019-05-03T11:17:09.239Z,100679.67
2019-05-03T11:19:38.294Z,100682.38
2019-05-03T11:22:07.291Z,100674.87
2019-05-03T11:24:36.346Z,100691.84
2019-05-03T11:27:10.249Z,100683.34
2019-05-03T11:29:39.660Z,100688.81
2019-05-03T11:32:26.515Z,100695.88
2019-05-03T11:35:06.773Z,100697.11
2019-05-03T11:37:45.265Z,100689.33
2019-05-03T11:40:15.731Z,100691.09
2019-05-03T11:42:45.031Z,100698.75
2019-05-03T11:45:15.200Z,100690.19
2019-05-03T11:47:45.659Z,100695.27
2019-05-03T11:50:15.363Z,100693.88
2019-05-03T11:52:47.135Z,100687.26
2019-05-03T11:55:16.079Z,100699.94
2019-05-03T11:57:45.208Z,100698.28
2019-05-03T12:00:17.027Z,100679.16
2019-05-03T12:02:55.593Z,100679.23
2019-05-03T12:05:26.624Z,100679.23
2019-05-03T12:07:55.677Z,100694.53
2019-05-03T12:10:36.716Z,100692.01
2019-05-03T12:13:00.636Z,100681.30
2019-05-03T12:15:29.685Z,100682.12
2019-05-03T12:18:02.257Z,100692.67
2019-05-03T12:20:33.134Z,100687.26
2019-05-03T12:23:05.559Z,100664.95
2019-05-03T12:25:35.789Z,100682.48
2019-05-03T12:28:05.821Z,100683.10
2019-05-03T12:30:35.526Z,100675.52
2019-05-03T12:33:05.958Z,100679.75
2019-05-03T12:35:35.876Z,100681.80
2019-05-03T12:38:05.645Z,100682.74
2019-05-03T12:40:35.174Z,100672.84
2019-05-03T12:43:05.999Z,100674.81
2019-05-03T12:45:35.499Z,100678.47
2019-05-03T12:48:05.233Z,100663.73
2019-05-03T12:50:34.831Z,100664.34
2019-05-03T12:53:04.925Z,100678.72
2019-05-03T12:55:35.605Z,100665.13
2019-05-03T12:58:06.510Z,100664.41
2019-05-03T13:00:55.634Z,100652.44
2019-05-03T13:03:30.687Z,100652.44
2019-05-03T13:06:00.001Z,100665.09
2019-05-03T13:08:35.355Z,100657.57
2019-05-03T13:11:05.418Z,100653.65
2019-05-03T13:13:35.886Z,100654.90
2019-05-03T13:16:05.661Z,100645.64
2019-05-03T13:18:35.405Z,100645.92
2019-05-03T13:21:06.056Z,100639.86
2019-05-03T13:23:35.976Z,100640.86
2019-05-03T13:26:06.101Z,100629.92
2019-05-03T13:28:35.384Z,100650.08
2019-05-03T13:31:05.811Z,100669.06
2019-05-03T13:33:35.237Z,100699.81
2019-05-03T13:36:04.915Z,100698.43
2019-05-03T13:38:34.938Z,100702.80
2019-05-03T13:41:06.357Z,100699.59
2019-05-03T13:43:35.065Z,100692.44
2019-05-03T13:46:05.183Z,100666.58
2019-05-03T13:48:42.789Z,100648.66
2019-05-03T13:51:05.532Z,100651.05
2019-05-03T13:53:34.974Z,100641.96
2019-05-03T13:56:04.802Z,100643.25
2019-05-03T13:58:35.850Z,100635.45
2019-05-03T14:01:05.529Z,100632.88
2019-05-03T14:03:35.277Z,100630.40
2019-05-03T14:06:08.492Z,100622.67
2019-05-03T14:08:35.580Z,100615.38
2019-05-03T14:11:05.106Z,100609.00
2019-05-03T14:13:35.284Z,100609.38
2019-05-03T14:16:05.755Z,100603.97
2019-05-03T14:18:35.472Z,100595.82
2019-05-03T14:21:25.323Z,100600.89
2019-05-03T14:24:09.505Z,100603.16
2019-05-03T14:26:39.287Z,100593.16
2019-05-03T14:29:08.811Z,100581.12
2019-05-03T14:31:37.993Z,100581.73
2019-05-03T14:34:07.222Z,100582.73
2019-05-03T14:36:36.282Z,100567.94
2019-05-03T14:39:09.789Z,100575.98
2019-05-03T14:41:38.089Z,100573.87
2019-05-03T14:44:07.245Z,100577.71
2019-05-03T14:46:36.843Z,100576.42
2019-05-03T14:49:06.174Z,100576.42
2019-05-03T14:51:35.258Z,100566.71
2019-05-03T14:54:05.328Z,100570.91
2019-05-03T14:56:41.286Z,100575.68
2019-05-03T14:59:29.319Z,100574.38
2019-05-03T15:02:17.321Z,100571.57
2019-05-03T15:04:46.398Z,100562.43
2019-05-03T15:07:15.437Z,100577.13
2019-05-03T15:09:45.793Z,100554.55
2019-05-03T15:12:15.027Z,100555.69
2019-05-03T15:14:45.144Z,100549.79
2019-05-03T15:17:14.297Z,100550.62
2019-05-03T15:19:45.350Z,100529.33
2019-05-03T15:22:14.725Z,100529.33
2019-05-03T15:24:45.075Z,100524.45
2019-05-03T15:27:14.478Z,100523.77
2019-05-03T15:29:44.832Z,100519.05
2019-05-03T15:32:15.474Z,100519.72
2019-05-03T15:34:44.730Z,100512.38
2019-05-03T15:37:14.839Z,100514.13
2019-05-03T15:39:45.139Z,100520.16
2019-05-03T15:42:14.786Z,100516.19
2019-05-03T15:45:11.892Z,100515.91
2019-05-03T15:47:46.288Z,100522.59
2019-05-03T15:50:15.580Z,100543.91
2019-05-03T15:52:44.883Z,100532.04
2019-05-03T15:55:15.241Z,100534.50
2019-05-03T15:57:44.822Z,100544.38
2019-05-03T16:00:15.298Z,100546.33
2019-05-03T16:02:44.318Z,100551.59
2019-05-03T16:05:15.573Z,100550.62
2019-05-03T16:07:44.701Z,100547.20
2019-05-03T16:10:15.397Z,100538.47
2019-05-03T16:12:45.029Z,100543.16
2019-05-03T16:15:14.606Z,100544.39
2019-05-03T16:17:44.933Z,100525.20
2019-05-03T16:20:14.458Z,100529.18
2019-05-03T16:22:44.982Z,100529.95
2019-05-03T16:25:15.478Z,100532.80
2019-05-03T16:28:04.666Z,100534.52
2019-05-03T16:30:45.589Z,100537.20
2019-05-03T16:33:26.176Z,100527.09
2019-05-03T16:35:45.506Z,100527.86
2019-05-03T16:38:15.719Z,100530.66
2019-05-03T16:40:45.227Z,100528.30
2019-05-03T16:43:16.245Z,100511.20
2019-05-03T16:45:45.335Z,100527.42
2019-05-03T16:48:15.390Z,100529.15
2019-05-03T16:50:45.269Z,100557.94
2019-05-03T16:53:14.831Z,100552.81
2019-05-03T16:55:44.454Z,100539.95
2019-05-03T16:58:14.946Z,100548.73
2019-05-03T17:00:45.251Z,100529.25
2019-05-03T17:03:14.684Z,100519.89
2019-05-03T17:06:02.860Z,100505.73
2019-05-03T17:08:50.188Z,100511.34
2019-05-03T17:11:20.338Z,100509.47
2019-05-03T17:13:49.337Z,100509.19
2019-05-03T17:16:18.388Z,100504.77
2019-05-03T17:18:47.383Z,100496.78
2019-05-03T17:21:16.469Z,100502.97
2019-05-03T17:23:45.570Z,100497.91
2019-05-03T17:26:14.974Z,100496.38
2019-05-03T17:28:45.410Z,100500.93
2019-05-03T17:31:14.684Z,100500.66
2019-05-03T17:33:51.467Z,100508.03
2019-05-03T17:36:15.435Z,100510.40
2019-05-03T17:38:45.322Z,100510.44
2019-05-03T17:41:43.115Z,100501.23
2019-05-03T17:44:16.332Z,100493.80
2019-05-03T17:46:45.641Z,100490.69
2019-05-03T17:49:14.879Z,100492.66
2019-05-03T17:51:55.800Z,100489.36
2019-05-03T17:54:59.082Z,100491.78
2019-05-03T17:57:42.152Z,100487.15
2019-05-03T18:00:27.644Z,100488.30
2019-05-03T18:02:56.825Z,100486.40
2019-05-03T18:05:41.194Z,100473.45
2019-05-03T18:08:35.570Z,100471.14
2019-05-03T18:11:08.594Z,100474.05
2019-05-03T18:13:37.656Z,100470.44
2019-05-03T18:16:07.128Z,100467.41
2019-05-03T18:18:36.170Z,100467.92
2019-05-03T18:21:05.359Z,100475.27
2019-05-03T18:23:35.178Z,100468.90
2019-05-03T18:26:05.307Z,100461.19
2019-05-03T18:28:35.586Z,100460.83
2019-05-03T18:31:05.418Z,100464.45
2019-05-03T18:33:36.721Z,100465.32
2019-05-03T18:36:05.736Z,100463.19
2019-05-03T18:38:44.543Z,100466.44
2019-05-03T18:41:14.099Z,100464.90
2019-05-03T18:44:05.276Z,100477.75
2019-05-03T18:46:37.981Z,100473.91
2019-05-03T18:49:06.985Z,100479.39
2019-05-03T18:51:36.040Z,100477.44
2019-05-03T18:54:07.247Z,100479.85
2019-05-03T18:56:35.880Z,100479.24
2019-05-03T18:59:05.224Z,100469.41
2019-05-03T19:01:34.869Z,100474.30
2019-05-03T19:04:14.584Z,100472.83
2019-05-03T19:06:45.150Z,100475.55
2019-05-03T19:09:35.698Z,100479.89
2019-05-03T19:12:15.488Z,100479.11
2019-05-03T19:14:45.020Z,100474.87
2019-05-03T19:17:27.113Z,100472.85
2019-05-03T19:19:56.171Z,100470.67
2019-05-03T19:22:25.221Z,100463.98
2019-05-03T19:24:54.249Z,100464.71
2019-05-03T19:27:24.938Z,100471.69
2019-05-03T19:29:55.492Z,100464.03
2019-05-03T19:32:25.454Z,100466.23
2019-05-03T19:34:55.357Z,100475.19
2019-05-03T19:37:25.181Z,100462.05
2019-05-03T19:39:55.229Z,100467.02
2019-05-03T19:42:27.082Z,100461.80
2019-05-03T19:44:55.449Z,100464.12
2019-05-03T19:47:25.215Z,100466.35
2019-05-03T19:49:54.814Z,100460.50
2019-05-03T19:52:26.940Z,100461.86
2019-05-03T19:54:55.995Z,100457.84
2019-05-03T19:57:30.097Z,100449.78
2019-05-03T19:59:59.149Z,100452.00
2019-05-03T20:02:54.559Z,100452.00
2019-05-03T20:05:39.686Z,100450.79
2019-05-03T20:08:15.338Z,100452.00
2019-05-03T20:10:46.390Z,100437.95
2019-05-03T20:13:16.305Z,100442.59
2019-05-03T20:15:46.654Z,100452.33
2019-05-03T20:18:18.067Z,100444.17
2019-05-03T20:20:51.523Z,100446.79
2019-05-03T20:23:20.449Z,100449.86
2019-05-03T20:25:49.512Z,100444.49
2019-05-03T20:28:19.258Z,100442.78
2019-05-03T20:30:48.260Z,100444.96
2019-05-03T20:33:17.310Z,100440.69
2019-05-03T20:35:46.525Z,100440.36
2019-05-03T20:38:16.738Z,100441.08
2019-05-03T20:40:46.614Z,100440.37
2019-05-03T20:43:25.838Z,100444.27
2019-05-03T20:46:17.202Z,100443.56
2019-05-03T20:48:48.847Z,100439.67
2019-05-03T20:51:17.845Z,100439.17
2019-05-03T20:53:46.970Z,100441.23
2019-05-03T20:56:16.656Z,100442.36
2019-05-03T20:58:46.661Z,100443.70
2019-05-03T21:01:16.713Z,100441.73
2019-05-03T21:03:46.667Z,100432.84
2019-05-03T21:06:16.694Z,100430.75
2019-05-03T21:08:52.979Z,100431.26
2019-05-03T21:11:17.616Z,100431.27
2019-05-03T21:13:46.770Z,100426.40
2019-05-03T21:16:41.897Z,100431.89
2019-05-03T21:19:21.587Z,100433.23
2019-05-03T21:21:55.034Z,100424.09
2019-05-03T21:24:30.751Z,100424.21
2019-05-03T21:26:59.831Z,100424.09
2019-05-03T21:29:28.841Z,100428.11
2019-05-03T21:31:57.807Z,100418.59
2019-05-03T21:34:26.818Z,100415.20
2019-05-03T21:36:55.853Z,100419.34
2019-05-03T21:39:24.903Z,100420.80
2019-05-03T21:41:55.514Z,100417.63
2019-05-03T21:44:34.744Z,100425.16
2019-05-03T21:47:19.581Z,100425.16
2019-05-03T21:49:48.859Z,100427.99
2019-05-03T21:52:18.135Z,100419.33
2019-05-03T21:54:47.580Z,100418.36
2019-05-03T21:57:17.394Z,100407.27
2019-05-03T21:59:47.130Z,100414.80
2019-05-03T22:02:17.163Z,100411.91
2019-05-03T22:04:47.095Z,100413.34
2019-05-03T22:07:17.289Z,100414.47
2019-05-03T22:09:47.176Z,100414.81
2019-05-03T22:12:17.159Z,100412.14
2019-05-03T22:15:09.585Z,100414.33
2019-05-03T22:18:04.760Z,100407.41
2019-05-03T22:20:43.059Z,100407.63
2019-05-03T22:23:34.160Z,100392.28
2019-05-03T22:26:05.138Z,100399.58
2019-05-03T22:28:35.139Z,100397.27
2019-05-03T22:31:06.778Z,100395.80
2019-05-03T22:33:35.326Z,100394.31
2019-05-03T22:36:08.591Z,100387.69
2019-05-03T22:38:38.298Z,100399.02
2019-05-03T22:41:05.881Z,100411.17
2019-05-03T22:43:34.944Z,100408.72
2019-05-03T22:46:05.331Z,100410.05
2019-05-03T22:48:34.483Z,100400.91
2019-05-03T22:51:04.837Z,100392.57
2019-05-03T22:53:34.354Z,100401.73
2019-05-03T22:56:04.948Z,100396.37
2019-05-03T22:58:35.489Z,100398.23
2019-05-03T23:01:04.573Z,100391.92
2019-05-03T23:03:42.244Z,100391.10
2019-05-03T23:06:20.338Z,100391.23
2019-05-03T23:08:42.828Z,100387.69
2019-05-03T23:11:11.840Z,100398.29
2019-05-03T23:13:40.952Z,100400.49
2019-05-03T23:16:09.971Z,100400.50
2019-05-03T23:18:39.067Z,100392.47
2019-05-03T23:21:15.206Z,100379.30
2019-05-03T23:23:54.892Z,100369.80
2019-05-03T23:26:25.455Z,100368.73
2019-05-03T23:28:55.109Z,100368.23
2019-05-03T23:31:25.201Z,100372.27
2019-05-03T23:33:54.603Z,100370.70
2019-05-03T23:36:33.222Z,100368.41
2019-05-03T23:38:54.693Z,100354.00
2019-05-03T23:41:24.563Z,100353.66
2019-05-03T23:43:54.046Z,100354.50
2019-05-03T23:46:28.963Z,100355.13
2019-05-03T23:48:58.278Z,100345.61
2019-05-03T23:51:51.175Z,100338.69
2019-05-03T23:54:20.231Z,100343.42
2019-05-03T23:56:49.228Z,100337.45
2019-05-03T23:59:18.272Z,100338.92
